Time;durP1;ratioP1;P1;durP2;ratioP2;P2;SDS_P1;SDS_P2;PMS_P1;PMS_P2;Temp;Humidity;BMP_temperature;BMP_pressure;BME280_temperature;BME280_humidity;BME280_pressure;Samples;Min_cycle;Max_cycle;Signal;HPM_P1;HPM_P2
2024/02/17 00:00:06;;;;;;;20.10;11.70;;;;;;;8.93;74.33;98909.96;435544;1251;99243;-41
2024/02/17 00:10:34;;;;;;;22.30;13.20;;;;;;;8.87;74.48;98910.53;435536;1250;110444;-40
2024/02/17 00:20:41;;;;;;;19.20;11.10;;;;;;;8.87;74.37;98916.78;435279;1253;99253;-40
2024/02/17 00:30:48;;;;;;;20.70;12.20;;;;;;;8.90;74.43;98919.44;435442;1253;110961;-40
2024/02/17 00:51:02;;;;;;;19.70;12.50;;;;;;;8.72;74.39;98928.48;435567;1250;98836;-40
2024/02/17 01:01:19;;;;;;;18.90;11.80;;;;;;;8.70;74.41;98930.69;435452;1251;109400;-41
2024/02/17 01:11:39;;;;;;;19.90;12.50;;;;;;;8.73;74.49;98926.54;435537;1250;99229;-40
2024/02/17 01:21:46;;;;;;;18.80;12.40;;;;;;;8.70;74.48;98924.65;435471;1253;111792;-40
2024/02/17 01:31:57;;;;;;;21.70;12.90;;;;;;;8.67;74.30;98922.84;435487;1253;109467;-39
2024/02/17 01:42:04;;;;;;;17.30;11.40;;;;;;;8.75;74.33;98921.88;435523;1253;99371;-40
2024/02/17 01:52:11;;;;;;;17.20;11.50;;;;;;;8.76;74.45;98921.70;435511;1253;107936;-39
2024/02/17 02:02:18;;;;;;;20.60;12.60;;;;;;;8.70;74.29;98924.23;435404;1251;99218;-41
2024/02/17 02:12:26;;;;;;;21.60;12.30;;;;;;;8.64;74.35;98928.78;435490;1253;111765;-41
2024/02/17 02:22:33;;;;;;;18.50;11.10;;;;;;;8.68;74.16;98925.11;436176;1251;108206;-39
2024/02/17 02:32:41;;;;;;;21.20;12.90;;;;;;;8.64;74.21;98922.45;435598;1253;99221;-40
2024/02/17 02:42:48;;;;;;;16.50;12.30;;;;;;;8.57;74.42;98923.54;435512;1251;108538;-43
2024/02/17 02:52:55;;;;;;;19.70;12.00;;;;;;;8.50;74.37;98919.55;435593;1251;99191;-40
2024/02/17 03:03:02;;;;;;;21.30;11.90;;;;;;;8.48;74.55;98922.66;435475;1253;112108;-41
2024/02/17 03:13:09;;;;;;;21.00;12.10;;;;;;;8.52;74.53;98934.11;435511;1254;108744;-39
2024/02/17 03:23:16;;;;;;;20.20;12.30;;;;;;;8.49;74.63;98940.84;435604;1250;99191;-40
2024/02/17 03:33:23;;;;;;;19.00;12.70;;;;;;;8.43;74.72;98943.05;435585;1253;109377;-41
2024/02/17 03:43:31;;;;;;;21.90;13.50;;;;;;;8.46;74.80;98951.71;435432;1253;98039;-41
2024/02/17 03:53:37;;;;;;;18.20;11.50;;;;;;;8.52;74.97;98955.80;435536;1253;111303;-40
2024/02/17 04:03:45;;;;;;;20.30;13.80;;;;;;;8.48;75.05;98961.19;435377;1253;109328;-40
2024/02/17 04:13:52;;;;;;;22.90;15.40;;;;;;;8.43;75.28;98956.22;435236;1251;551338;-41
2024/02/17 04:23:59;;;;;;;21.70;13.30;;;;;;;8.37;75.23;98966.83;435770;1253;107131;-41
2024/02/17 04:34:06;;;;;;;20.80;12.10;;;;;;;8.40;75.20;98977.73;436225;1260;99240;-41
2024/02/17 04:44:13;;;;;;;19.40;12.80;;;;;;;8.43;75.46;98978.56;435168;1253;111114;-40
2024/02/17 04:54:21;;;;;;;22.20;13.50;;;;;;;8.37;75.63;98987.70;435282;1253;109294;-40
2024/02/17 05:04:28;;;;;;;23.40;13.70;;;;;;;8.28;75.79;98998.15;435412;1253;101531;-40
2024/02/17 05:24:42;;;;;;;21.00;14.20;;;;;;;8.14;76.77;99020.10;435318;1253;99250;-39
2024/02/17 05:34:49;;;;;;;24.60;15.60;;;;;;;8.06;77.13;99029.05;435614;1253;111134;-40
2024/02/17 05:44:57;;;;;;;15.10;11.60;;;;;;;8.05;77.38;99039.31;435410;1251;107395;-40
2024/02/17 06:05:10;;;;;;;22.70;14.70;;;;;;;7.92;78.16;99054.98;435586;1253;108260;-40
2024/02/17 06:15:17;;;;;;;24.80;15.70;;;;;;;7.75;78.50;99063.35;435525;1254;99198;-40
2024/02/17 06:25:24;;;;;;;20.50;14.70;;;;;;;7.62;78.87;99084.27;435430;1250;111185;-40
2024/02/17 06:35:31;;;;;;;22.60;14.20;;;;;;;7.54;79.58;99095.70;435419;1250;108434;-41
2024/02/17 06:45:38;;;;;;;36.00;18.40;;;;;;;7.52;80.08;99104.35;435390;1253;98042;-39
2024/02/17 06:55:46;;;;;;;54.80;25.70;;;;;;;7.49;80.67;99115.20;435462;1255;107991;-40
2024/02/17 07:05:53;;;;;;;32.70;19.50;;;;;;;7.40;81.36;99124.27;435474;1255;99270;-39
2024/02/17 07:16:00;;;;;;;27.90;18.30;;;;;;;7.34;81.94;99142.36;435411;1251;110647;-39
2024/02/17 07:26:06;;;;;;;28.10;17.80;;;;;;;7.37;82.78;99146.98;435540;1253;109622;-40
2024/02/17 07:36:13;;;;;;;30.10;18.40;;;;;;;7.46;82.98;99155.91;435525;1253;99353;-40
2024/02/17 07:46:20;;;;;;;31.40;18.30;;;;;;;7.54;83.48;99161.88;435257;1253;110949;-40
2024/02/17 07:56:30;;;;;;;27.10;17.10;;;;;;;7.65;84.06;99160.68;435390;1254;98875;-39
2024/02/17 08:06:37;;;;;;;23.90;16.10;;;;;;;7.86;84.50;99171.88;435369;1263;111624;-39
2024/02/17 08:16:44;;;;;;;32.60;19.80;;;;;;;8.01;84.75;99181.59;435310;1250;107269;-40
2024/02/17 08:26:52;;;;;;;36.90;20.90;;;;;;;8.15;85.33;99198.81;435692;1250;98839;-40
2024/02/17 08:36:59;;;;;;;29.40;19.40;;;;;;;8.30;85.85;99211.00;437346;1263;108572;-40
2024/02/17 08:47:06;;;;;;;20.60;15.40;;;;;;;8.49;85.92;99212.34;435958;1253;99268;-39
2024/02/17 08:57:12;;;;;;;20.70;13.90;;;;;;;8.69;86.01;99220.34;435385;1251;110891;-39
2024/02/17 09:07:18;;;;;;;20.00;13.20;;;;;;;8.87;86.78;99236.31;436425;1253;108071;-40
2024/02/17 09:17:26;;;;;;;19.90;15.30;;;;;;;9.01;87.08;99245.20;435458;1260;99272;-40
2024/02/17 09:27:33;;;;;;;16.20;11.80;;;;;;;9.09;87.53;99251.67;435321;1254;107939;-40
2024/02/17 09:37:43;;;;;;;22.30;14.90;;;;;;;9.19;87.85;99267.66;436025;1254;99234;-40
2024/02/17 09:47:54;;;;;;;22.00;16.30;;;;;;;9.30;87.98;99269.48;435723;1254;111235;-40
2024/02/17 10:08:10;;;;;;;19.90;13.10;;;;;;;9.40;88.55;99281.02;435754;1253;99330;-40
2024/02/17 10:18:17;;;;;;;21.60;13.70;;;;;;;9.60;88.93;99285.45;435280;1263;108032;-39
2024/02/17 10:28:29;;;;;;;15.00;12.00;;;;;;;9.59;89.43;99291.98;435314;1254;98360;-41
2024/02/17 10:38:35;;;;;;;16.00;12.30;;;;;;;9.35;89.84;99303.54;435470;1249;110856;-40
2024/02/17 10:48:42;;;;;;;15.20;11.20;;;;;;;9.24;90.38;99308.23;435210;1251;107817;-40
2024/02/17 10:58:51;;;;;;;15.80;11.50;;;;;;;9.20;91.01;99326.44;436115;1253;99211;-40
2024/02/17 11:09:00;;;;;;;17.00;11.90;;;;;;;9.24;91.09;99328.80;435142;1261;107928;-40
2024/02/17 11:19:12;;;;;;;16.40;14.20;;;;;;;9.44;91.29;99332.88;435811;1254;99205;-39
2024/02/17 11:29:28;;;;;;;14.90;12.20;;;;;;;9.56;91.48;99341.19;435857;1253;110866;-40
2024/02/17 11:39:38;;;;;;;14.00;10.10;;;;;;;9.78;91.90;99344.67;435696;1249;108207;-40
2024/02/17 11:49:45;;;;;;;19.50;10.10;;;;;;;9.87;92.73;99349.81;436613;1250;99232;-39
2024/02/17 11:59:53;;;;;;;14.50;10.20;;;;;;;10.02;92.66;99363.97;435705;1255;108579;-39
2024/02/17 12:10:00;;;;;;;14.80;10.70;;;;;;;9.94;93.00;99370.65;435454;1254;99231;-40
2024/02/17 12:20:11;;;;;;;17.80;10.90;;;;;;;9.81;92.78;99374.54;435463;1250;111923;-40
2024/02/17 12:30:20;;;;;;;12.20;9.60;;;;;;;9.89;92.80;99380.70;435400;1251;107459;-42
2024/02/17 12:40:29;;;;;;;36.90;22.90;;;;;;;10.19;93.22;99388.89;435705;1251;99253;-40
2024/02/17 12:50:37;;;;;;;19.40;14.40;;;;;;;10.44;92.95;99387.67;435334;1254;107089;-40
2024/02/17 13:00:45;;;;;;;15.90;10.20;;;;;;;10.28;92.69;99391.52;435267;1254;99266;-40
2024/02/17 13:20:59;;;;;;;11.30;7.90;;;;;;;10.03;92.88;99409.52;435418;1265;107831;-40
2024/02/17 13:31:06;;;;;;;24.50;16.30;;;;;;;10.00;92.88;99413.08;435517;1253;99209;-39
2024/02/17 13:41:14;;;;;;;12.60;8.00;;;;;;;9.85;92.61;99416.02;435379;1254;107708;-40
2024/02/17 13:51:21;;;;;;;10.90;7.90;;;;;;;9.89;92.27;99429.42;435644;1250;99218;-39
2024/02/17 14:01:29;;;;;;;7.30;5.50;;;;;;;9.98;92.07;99439.79;435469;1253;111825;-39
2024/02/17 14:11:37;;;;;;;6.50;5.40;;;;;;;9.91;91.75;99455.69;435495;1254;107246;-40
2024/02/17 14:31:51;;;;;;;8.40;4.60;;;;;;;9.67;90.37;99480.36;435373;1251;106643;-40
2024/02/17 14:41:58;;;;;;;8.60;5.50;;;;;;;9.56;89.94;99498.02;435419;1251;99336;-39
2024/02/17 15:02:10;;;;;;;6.60;3.60;;;;;;;9.35;88.56;99525.64;435440;1251;107848;-40
2024/02/17 15:12:18;;;;;;;15.50;6.40;;;;;;;9.25;88.00;99535.70;435455;1250;99234;-41
2024/02/17 15:22:26;;;;;;;14.60;7.60;;;;;;;9.10;87.66;99546.23;435576;1251;108440;-39
2024/02/17 15:32:33;;;;;;;41.20;22.30;;;;;;;8.98;87.37;99563.20;435745;1254;99205;-38
2024/02/17 15:42:41;;;;;;;8.00;4.60;;;;;;;8.97;86.96;99572.99;435426;1254;113140;-39
2024/02/17 15:52:48;;;;;;;8.90;4.40;;;;;;;8.95;87.07;99587.30;435571;1250;108670;-40
2024/02/17 16:13:03;;;;;;;8.20;4.40;;;;;;;8.72;86.74;99605.13;435574;1253;586734;-39
2024/02/17 16:23:10;;;;;;;21.90;10.80;;;;;;;8.69;86.53;99614.52;435614;1253;99205;-39
2024/02/17 16:33:17;;;;;;;10.90;5.30;;;;;;;8.70;86.47;99635.77;435490;1253;111911;-40
2024/02/17 16:43:25;;;;;;;9.00;4.50;;;;;;;8.68;86.48;99645.41;435522;1253;108684;-39
2024/02/17 16:53:33;;;;;;;9.20;5.50;;;;;;;8.59;86.54;99659.61;435406;1249;99210;-40
2024/02/17 17:13:47;;;;;;;8.80;5.60;;;;;;;8.46;86.35;99689.21;437538;1253;99285;-41
2024/02/17 17:23:53;;;;;;;8.70;5.10;;;;;;;8.44;86.25;99703.06;437113;1253;111450;-40
2024/02/17 17:34:00;;;;;;;11.00;3.80;;;;;;;8.38;86.24;99716.76;437794;1251;109561;-40
2024/02/17 17:44:09;;;;;;;5.40;3.50;;;;;;;8.25;86.01;99723.91;435661;1251;98883;-40
2024/02/17 17:54:16;;;;;;;7.40;4.00;;;;;;;8.22;85.76;99731.69;435540;1253;107349;-41
2024/02/17 18:04:23;;;;;;;7.30;5.00;;;;;;;8.22;85.67;99740.52;435521;1250;97939;-40
2024/02/17 18:24:36;;;;;;;12.90;7.40;;;;;;;8.07;85.77;99766.92;435481;1250;107731;-41
2024/02/17 18:34:43;;;;;;;;;;;;;;;7.98;86.13;99785.01;435539;1253;99227;-38
2024/02/17 18:44:54;;;;;;;9.50;5.60;;;;;;;7.81;86.32;99806.20;435723;1253;107383;-39
2024/02/17 18:55:01;;;;;;;7.30;4.50;;;;;;;7.69;86.10;99817.85;435416;1251;99254;-41
2024/02/17 19:05:10;;;;;;;4.20;3.00;;;;;;;7.54;85.86;99845.42;435556;1253;113007;-39
2024/02/17 19:15:18;;;;;;;6.30;3.10;;;;;;;7.23;85.46;99869.69;435532;1253;107484;-40
2024/02/17 19:25:25;;;;;;;4.60;2.80;;;;;;;6.98;84.80;99892.44;435656;1253;99269;-40
2024/02/17 19:35:33;;;;;;;5.80;4.10;;;;;;;6.67;84.04;99903.12;435474;1253;108319;-41
2024/02/17 19:45:40;;;;;;;5.50;2.80;;;;;;;6.43;83.51;99914.32;435618;1253;99256;-40
2024/02/17 19:55:47;;;;;;;9.50;4.90;;;;;;;6.21;83.44;99927.33;435456;1253;110971;-40
2024/02/17 20:26:07;;;;;;;7.40;4.20;;;;;;;6.06;83.84;99964.41;435542;1253;107674;-40
2024/02/17 20:36:14;;;;;;;6.40;2.60;;;;;;;5.97;83.94;99986.11;435381;1253;99311;-41
2024/02/17 20:46:22;;;;;;;6.20;2.60;;;;;;;5.92;83.47;99995.56;435562;1253;111702;-40
2024/02/17 20:56:29;;;;;;;5.60;3.40;;;;;;;5.84;83.33;100002.52;435544;1250;108673;-40
2024/02/17 21:06:39;;;;;;;5.60;2.50;;;;;;;5.72;83.22;100006.14;435640;1249;98040;-39
2024/02/17 21:16:46;;;;;;;6.80;3.00;;;;;;;5.69;82.73;100013.98;435593;1250;108221;-40
2024/02/17 21:26:54;;;;;;;16.90;6.20;;;;;;;5.64;82.40;100029.92;435668;1250;97966;-39
2024/02/17 21:37:01;;;;;;;14.60;5.10;;;;;;;5.54;81.99;100036.67;435578;1253;112080;-41
2024/02/17 21:47:06;;;;;;;8.90;4.10;;;;;;;5.57;81.74;100041.36;435591;1253;106369;-39
2024/02/17 21:57:13;;;;;;;17.50;6.70;;;;;;;5.55;81.74;100041.50;435496;1250;99220;-39
2024/02/17 22:27:33;;;;;;;5.70;4.10;;;;;;;5.51;81.14;100051.73;435601;1253;110663;-38
2024/02/17 22:37:40;;;;;;;7.20;4.60;;;;;;;5.45;80.92;100061.35;435497;1253;108399;-40
2024/02/17 22:47:48;;;;;;;9.70;5.60;;;;;;;5.41;81.00;100065.20;435380;1251;99234;-39
2024/02/17 22:57:55;;;;;;;5.40;3.40;;;;;;;5.40;80.79;100069.66;435518;1251;108058;-40
2024/02/17 23:08:03;;;;;;;8.50;3.90;;;;;;;5.40;80.71;100079.47;435352;1252;99365;-40
2024/02/17 23:18:10;;;;;;;8.90;3.50;;;;;;;5.29;80.60;100086.37;435586;1254;111036;-39
2024/02/17 23:28:18;;;;;;;6.00;3.30;;;;;;;5.16;80.35;100092.13;435519;1250;109337;-40
2024/02/17 23:38:24;;;;;;;8.10;2.00;;;;;;;5.18;80.20;100095.23;435330;1253;98820;-40
2024/02/17 23:48:32;;;;;;;3.70;2.40;;;;;;;5.17;79.91;100100.36;435535;1253;108598;-40
2024/02/17 23:58:39;;;;;;;5.70;2.80;;;;;;;5.11;79.47;100113.29;435414;1253;99253;-40
